Happy Valley, Oregon
Current Conditions -  °F | °C
As of 6:53 AM on Friday 19 Dec 2014 (Local Time) from KTTD Reporting Station
Light Rain Light Rain  
Wind Chill: 45°   Ceiling: 6500
Heat Index: 45°   Visibility: 10mi
Dew Point: 42°   Wind: 3mph
Humidity: 90%   Direction: 80°E
Pressure: 29.94"   Gusts: NA
Location:  45.45°N, 122.53°W
Report Text: KTTD 191453Z 08003KT 10SM -RA FEW019 OVC065 07/06 A2994 RMK AO2 RAB01E11B41 SLP137 P0000 60000 T00720056 53008
Loading
Personal Weather Stations






























Interactive Weather Map New forecast layout! Learn more

10-Day Weather Forecast

Advertisements
Track Severe Weather on mobile